createdAt,value
2023-01-13T00:01:58.177Z,92.9
2023-01-13T00:04:58.205Z,92.9
2023-01-13T00:07:58.166Z,92.8
2023-01-13T00:10:58.166Z,92.8
2023-01-13T00:13:58.194Z,92.7
2023-01-13T00:16:58.181Z,92.8
2023-01-13T00:19:58.204Z,92.8
2023-01-13T00:22:58.185Z,92.6
2023-01-13T00:25:58.193Z,92.4
2023-01-13T00:28:58.218Z,92.4
2023-01-13T00:31:58.195Z,92.3
2023-01-13T00:34:58.197Z,92.3
2023-01-13T00:37:58.310Z,92.3
2023-01-13T00:40:58.211Z,92.5
2023-01-13T00:43:58.214Z,92.4
2023-01-13T00:46:58.212Z,92.4
2023-01-13T00:49:58.218Z,92.5
2023-01-13T00:52:58.224Z,92.5
2023-01-13T00:55:58.251Z,92.5
2023-01-13T00:58:58.321Z,92.4
2023-01-13T01:01:58.351Z,92.4
2023-01-13T01:04:58.239Z,92.4
2023-01-13T01:07:58.238Z,92.2
2023-01-13T01:10:58.238Z,92
2023-01-13T01:13:58.266Z,92
2023-01-13T01:16:58.252Z,92
2023-01-13T01:19:58.260Z,92
2023-01-13T01:22:58.260Z,92
2023-01-13T01:25:58.265Z,91.9
2023-01-13T01:28:58.265Z,91.9
2023-01-13T01:31:58.285Z,91.8
2023-01-13T01:34:58.267Z,91.8
2023-01-13T01:37:58.287Z,91.8
2023-01-13T01:40:58.269Z,91.8
2023-01-13T01:43:58.270Z,91.8
2023-01-13T01:46:58.351Z,91.5
2023-01-13T01:49:58.300Z,91.3
2023-01-13T01:52:58.271Z,91.4
2023-01-13T01:55:58.278Z,91.6
2023-01-13T01:58:58.283Z,91.7
2023-01-13T02:01:58.565Z,91.7
2023-01-13T02:04:58.305Z,91.8
2023-01-13T02:07:58.344Z,92.1
2023-01-13T02:10:58.325Z,92.3
2023-01-13T02:13:58.347Z,92.3
2023-01-13T02:16:58.349Z,92.7
2023-01-13T02:19:58.358Z,93
2023-01-13T02:22:58.369Z,93.2
2023-01-13T02:25:58.386Z,93.5
2023-01-13T02:28:58.373Z,93.6
2023-01-13T02:31:58.428Z,93.6
2023-01-13T02:34:58.389Z,93.6
2023-01-13T02:37:58.388Z,93.6
2023-01-13T02:40:58.395Z,93.4
2023-01-13T02:43:58.438Z,93.3
2023-01-13T02:46:58.407Z,93.2
2023-01-13T02:49:58.439Z,92.8
2023-01-13T02:52:58.412Z,92.2
2023-01-13T02:55:58.422Z,91.8
2023-01-13T02:58:58.420Z,91.2
2023-01-13T03:01:58.702Z,90.7
2023-01-13T03:04:58.441Z,89
2023-01-13T03:07:58.444Z,88.8
2023-01-13T03:10:58.449Z,88.1
2023-01-13T03:13:58.457Z,88
2023-01-13T03:16:58.471Z,87.4
2023-01-13T03:19:58.504Z,87.2
2023-01-13T03:22:58.471Z,85.7
2023-01-13T03:25:58.479Z,85.4
2023-01-13T03:28:58.480Z,84.9
2023-01-13T03:31:58.483Z,83.7
2023-01-13T03:34:58.482Z,83.2
2023-01-13T03:37:58.508Z,82.8
2023-01-13T03:40:58.493Z,83.3
2023-01-13T03:43:58.500Z,82.6
2023-01-13T03:46:58.497Z,82.7
2023-01-13T03:49:58.501Z,82.4
2023-01-13T03:52:58.500Z,82.2
2023-01-13T03:55:58.538Z,82.1
2023-01-13T03:58:58.513Z,82.3
2023-01-13T04:01:58.650Z,81.9
2023-01-13T04:04:58.522Z,81.5
2023-01-13T04:07:58.518Z,81.2
2023-01-13T04:10:58.527Z,81
2023-01-13T04:13:58.558Z,80.4
2023-01-13T04:16:58.542Z,80.7
2023-01-13T04:19:58.545Z,80.4
2023-01-13T04:22:58.548Z,80.8
2023-01-13T04:25:58.553Z,81.2
2023-01-13T04:28:58.567Z,81.4
2023-01-13T04:31:58.615Z,81.7
2023-01-13T04:34:58.576Z,82.1
2023-01-13T04:37:58.574Z,82.5
2023-01-13T04:40:58.579Z,82.9
2023-01-13T04:43:58.582Z,82.9
2023-01-13T04:46:58.591Z,83.2
2023-01-13T04:49:58.631Z,83.6
2023-01-13T04:52:58.599Z,83.9
2023-01-13T04:55:58.607Z,84.1
2023-01-13T04:58:58.621Z,84.1
2023-01-13T05:01:58.683Z,84
2023-01-13T05:04:58.659Z,83.9
2023-01-13T05:07:58.661Z,84.1
2023-01-13T05:10:58.643Z,84.2
2023-01-13T05:13:58.646Z,84.3
2023-01-13T05:16:58.657Z,84.4
2023-01-13T05:19:58.657Z,84.6
2023-01-13T05:22:58.655Z,84.6
2023-01-13T05:25:58.700Z,84.6
2023-01-13T05:28:58.673Z,84.7
2023-01-13T05:31:58.676Z,85
2023-01-13T05:34:58.681Z,85.4
2023-01-13T05:37:58.720Z,85.9
2023-01-13T05:40:59.595Z,86.3
2023-01-13T05:43:58.708Z,86.5
2023-01-13T05:46:58.685Z,86.7
2023-01-13T05:49:58.696Z,87.1
2023-01-13T05:52:58.693Z,87.5
2023-01-13T05:55:58.695Z,87.6
2023-01-13T05:58:58.710Z,87.6
2023-01-13T06:01:58.733Z,88
2023-01-13T06:04:58.710Z,88.8
2023-01-13T06:07:58.715Z,89.3
2023-01-13T06:10:58.716Z,89.9
2023-01-13T06:13:58.725Z,90.4
2023-01-13T06:16:58.742Z,91
2023-01-13T06:19:58.778Z,91.6
2023-01-13T06:22:58.752Z,92.2
2023-01-13T06:25:58.764Z,91.8
2023-01-13T06:28:58.760Z,90.6
2023-01-13T06:31:58.759Z,88.5
2023-01-13T06:34:58.774Z,87.9
2023-01-13T06:37:58.793Z,86.9
2023-01-13T06:40:58.772Z,86.1
2023-01-13T06:43:58.775Z,86.1
2023-01-13T06:46:58.863Z,85.8
2023-01-13T06:49:58.793Z,85.3
2023-01-13T06:52:58.792Z,85
2023-01-13T06:55:58.822Z,84.8
2023-01-13T06:58:58.793Z,84.9
2023-01-13T07:01:58.915Z,85.1
2023-01-13T07:04:58.802Z,85.2
2023-01-13T07:07:58.807Z,85.4
2023-01-13T07:10:58.815Z,85.5
2023-01-13T07:13:58.837Z,85.6
2023-01-13T07:16:58.822Z,85.6
2023-01-13T07:19:58.850Z,85.4
2023-01-13T07:22:58.842Z,85.2
2023-01-13T07:25:58.905Z,85.2
2023-01-13T07:28:58.829Z,85.1
2023-01-13T07:31:58.889Z,84.7
2023-01-13T07:34:58.839Z,84.4
2023-01-13T07:37:58.838Z,84.2
2023-01-13T07:40:58.846Z,84.2
2023-01-13T07:43:58.849Z,84.1
2023-01-13T07:46:58.849Z,84.2
2023-01-13T07:49:58.884Z,84
2023-01-13T07:52:58.856Z,83.9
2023-01-13T07:55:58.864Z,83.8
2023-01-13T07:58:58.870Z,83.5
2023-01-13T08:01:59.021Z,83.2
2023-01-13T08:04:58.866Z,83.1
2023-01-13T08:07:58.898Z,82.7
2023-01-13T08:10:58.890Z,82.5
2023-01-13T08:13:58.881Z,82.3
2023-01-13T08:16:58.933Z,81.9
2023-01-13T08:19:58.885Z,81.6
2023-01-13T08:22:58.886Z,80.8
2023-01-13T08:25:58.925Z,80
2023-01-13T08:28:58.896Z,78.8
2023-01-13T08:31:58.907Z,77.6
2023-01-13T08:34:58.951Z,76.9
2023-01-13T08:37:58.969Z,76.1
2023-01-13T08:40:59.022Z,75.2
2023-01-13T08:43:58.947Z,75.5
2023-01-13T08:46:58.952Z,75.7
2023-01-13T08:49:58.933Z,75.7
2023-01-13T08:52:58.935Z,76
2023-01-13T08:55:58.938Z,76.3
2023-01-13T08:58:58.954Z,76.4
2023-01-13T09:01:59.140Z,75.9
2023-01-13T09:04:58.956Z,75.6
2023-01-13T09:07:58.955Z,76
2023-01-13T09:10:58.969Z,76.2
2023-01-13T09:13:58.969Z,75.3
2023-01-13T09:16:58.979Z,75.3
2023-01-13T09:19:59.016Z,75.2
2023-01-13T09:22:58.981Z,74.1
2023-01-13T09:25:58.986Z,73.3
2023-01-13T09:28:58.987Z,72.3
2023-01-13T09:31:58.999Z,71.6
2023-01-13T09:34:58.992Z,72.7
2023-01-13T09:37:59.023Z,72.9
2023-01-13T09:40:59.008Z,73.3
2023-01-13T09:43:59.007Z,73.3
2023-01-13T09:46:59.033Z,72.5
2023-01-13T09:49:59.023Z,72.4
2023-01-13T09:52:59.030Z,72.5
2023-01-13T09:55:59.072Z,72.4
2023-01-13T09:58:59.035Z,71.9
2023-01-13T10:01:59.042Z,71.7
2023-01-13T10:04:59.151Z,71.4
2023-01-13T10:07:59.087Z,71
2023-01-13T10:10:59.104Z,70.1
2023-01-13T10:13:59.128Z,69.1
2023-01-13T10:16:59.147Z,67.2
2023-01-13T10:19:59.150Z,68.1
2023-01-13T10:22:59.160Z,67.8
2023-01-13T10:25:59.204Z,68.1
2023-01-13T10:28:59.172Z,68.3
2023-01-13T10:31:59.191Z,68.2
2023-01-13T10:34:59.160Z,68
2023-01-13T10:37:59.163Z,67.6
2023-01-13T10:40:59.172Z,67.5
2023-01-13T10:43:59.181Z,67.5
2023-01-13T10:46:59.170Z,67.4
2023-01-13T10:49:59.204Z,67.5
2023-01-13T10:52:59.171Z,67.1
2023-01-13T10:55:59.174Z,66
2023-01-13T10:58:59.171Z,66.3
2023-01-13T11:01:59.205Z,65.6
2023-01-13T11:04:59.225Z,66.5
2023-01-13T11:07:59.212Z,66.2
2023-01-13T11:10:59.182Z,66.6
2023-01-13T11:13:59.180Z,66.3
2023-01-13T11:16:59.192Z,66.5
2023-01-13T11:19:59.176Z,66.4
2023-01-13T11:22:59.176Z,66.4
2023-01-13T11:25:59.227Z,65.7
2023-01-13T11:28:59.181Z,66.2
2023-01-13T11:31:59.186Z,66.4
2023-01-13T11:34:59.190Z,65.1
2023-01-13T11:37:59.188Z,65
2023-01-13T11:40:59.189Z,65.4
2023-01-13T11:43:59.224Z,65.2
2023-01-13T11:46:59.245Z,64.8
2023-01-13T11:49:59.210Z,64.9
2023-01-13T11:52:59.225Z,66
2023-01-13T11:55:59.208Z,66.1
2023-01-13T11:58:59.203Z,68.8
2023-01-13T12:01:59.244Z,69.7
2023-01-13T12:04:59.210Z,69.1
2023-01-13T12:07:59.210Z,68.2
2023-01-13T12:10:59.236Z,66.6
2023-01-13T12:13:59.235Z,66.1
2023-01-13T12:17:01.108Z,65.4
2023-01-13T12:19:59.232Z,65.6
2023-01-13T12:22:59.216Z,64.6
2023-01-13T12:25:59.211Z,64.3
2023-01-13T12:28:59.304Z,64.7
2023-01-13T12:31:59.240Z,64.3
2023-01-13T12:34:59.217Z,64.7
2023-01-13T12:37:59.260Z,64.5
2023-01-13T12:40:59.223Z,65.5
2023-01-13T12:43:59.226Z,65.4
2023-01-13T12:46:59.255Z,65.1
2023-01-13T12:49:59.244Z,65
2023-01-13T12:52:59.274Z,65
2023-01-13T12:55:59.281Z,65.3
2023-01-13T12:58:59.245Z,64.4
2023-01-13T13:01:59.417Z,64.5
2023-01-13T13:04:59.251Z,64.8
2023-01-13T13:07:59.263Z,63.8
2023-01-13T13:10:59.260Z,64.2
2023-01-13T13:13:59.295Z,63.9
2023-01-13T13:16:59.276Z,64
2023-01-13T13:19:59.290Z,63.7
2023-01-13T13:22:59.288Z,63.9
2023-01-13T13:25:59.276Z,63.8
2023-01-13T13:28:59.283Z,64.8
2023-01-13T13:31:59.311Z,65.4
2023-01-13T13:34:59.292Z,65.6
2023-01-13T13:37:59.329Z,65.4
2023-01-13T13:40:59.305Z,65.6
2023-01-13T13:43:59.327Z,65.9
2023-01-13T13:46:59.310Z,65.9
2023-01-13T13:49:59.336Z,65.9
2023-01-13T13:52:59.331Z,66.1
2023-01-13T13:55:59.324Z,66.2
2023-01-13T13:58:59.335Z,66.1
2023-01-13T14:01:59.467Z,66.7
2023-01-13T14:04:59.389Z,67
2023-01-13T14:07:59.354Z,67
2023-01-13T14:10:59.312Z,67.5
2023-01-13T14:13:59.313Z,68
2023-01-13T14:16:59.318Z,68.7
2023-01-13T14:19:59.321Z,70.6
2023-01-13T14:22:59.320Z,73.5
2023-01-13T14:25:59.359Z,75.5
2023-01-13T14:28:59.345Z,77
2023-01-13T14:31:59.330Z,78
2023-01-13T14:34:59.340Z,78.7
2023-01-13T14:37:59.332Z,79.4
2023-01-13T14:40:59.340Z,80.3
2023-01-13T14:43:59.380Z,80.6
2023-01-13T14:46:59.347Z,80.7
2023-01-13T14:49:59.343Z,81.7
2023-01-13T14:52:59.353Z,82.8
2023-01-13T14:55:59.363Z,83.5
2023-01-13T14:58:59.363Z,83.7
2023-01-13T15:01:59.419Z,84
2023-01-13T15:04:59.381Z,84.4
2023-01-13T15:07:59.374Z,84.2
2023-01-13T15:10:59.377Z,83.9
2023-01-13T15:13:59.385Z,83.8
2023-01-13T15:16:59.391Z,83.4
2023-01-13T15:19:59.423Z,82.7
2023-01-13T15:22:59.391Z,82.4
2023-01-13T15:25:59.399Z,82.1
2023-01-13T15:28:59.410Z,81.8
2023-01-13T15:31:59.402Z,81.8
2023-01-13T15:34:59.400Z,81.8
2023-01-13T15:37:59.427Z,81.4
2023-01-13T15:40:59.409Z,81.1
2023-01-13T15:43:59.407Z,80.7
2023-01-13T15:46:59.420Z,80.6
2023-01-13T15:49:59.504Z,80.6
2023-01-13T15:52:59.418Z,80.7
2023-01-13T15:55:59.453Z,80.8
2023-01-13T15:58:59.430Z,80.8
2023-01-13T16:01:59.436Z,81
2023-01-13T16:04:59.449Z,80.7
2023-01-13T16:07:59.458Z,80.6
2023-01-13T16:10:59.468Z,80.4
2023-01-13T16:13:59.498Z,80.7
2023-01-13T16:16:59.480Z,80.8
2023-01-13T16:19:59.492Z,81
2023-01-13T16:22:59.508Z,81
2023-01-13T16:25:59.518Z,80.9
2023-01-13T16:28:59.530Z,80.4
2023-01-13T16:31:59.561Z,80.1
2023-01-13T16:34:59.846Z,79.9
2023-01-13T16:37:59.569Z,79.5
2023-01-13T16:40:59.575Z,79.2
2023-01-13T16:43:59.583Z,78.9
2023-01-13T16:46:59.597Z,78.7
2023-01-13T16:49:59.631Z,78.9
2023-01-13T16:52:59.614Z,78.7
2023-01-13T16:55:59.616Z,78.7
2023-01-13T16:58:59.626Z,78.5
2023-01-13T17:01:59.708Z,78.5
2023-01-13T17:04:59.635Z,78.4
2023-01-13T17:07:59.668Z,78.5
2023-01-13T17:10:59.673Z,78.8
2023-01-13T17:13:59.659Z,79
2023-01-13T17:16:59.677Z,79.4
2023-01-13T17:19:59.766Z,79.5
2023-01-13T17:22:59.666Z,79.7
2023-01-13T17:25:59.705Z,79.8
2023-01-13T17:28:59.672Z,79.8
2023-01-13T17:31:59.768Z,79.8
2023-01-13T17:34:59.683Z,79.9
2023-01-13T17:37:59.690Z,79.7
2023-01-13T17:40:59.695Z,79.8
2023-01-13T17:43:59.731Z,79.8
2023-01-13T17:46:59.700Z,79.9
2023-01-13T17:49:59.740Z,80.1
2023-01-13T17:52:59.709Z,80.3
2023-01-13T17:55:59.711Z,80.1
2023-01-13T17:58:59.711Z,79.9
2023-01-13T18:01:59.885Z,79.7
2023-01-13T18:04:59.713Z,79.7
2023-01-13T18:07:59.720Z,79.5
2023-01-13T18:10:59.729Z,79.5
2023-01-13T18:13:59.733Z,79.7
2023-01-13T18:16:59.752Z,79.9
2023-01-13T18:19:59.764Z,80.1
2023-01-13T18:22:59.749Z,80.1
2023-01-13T18:25:59.754Z,80.2
2023-01-13T18:28:59.756Z,80.2
2023-01-13T18:31:59.753Z,80.1
2023-01-13T18:35:05.530Z,80.1
2023-01-13T18:37:59.812Z,80
2023-01-13T18:40:59.775Z,79.8
2023-01-13T18:43:59.778Z,79.8
2023-01-13T18:46:59.776Z,79.7
2023-01-13T18:49:59.798Z,79.7
2023-01-13T18:52:59.796Z,79.8
2023-01-13T18:55:59.825Z,79.7
2023-01-13T18:58:59.804Z,79.7
2023-01-13T19:01:59.888Z,79.5
2023-01-13T19:04:59.817Z,79.2
2023-01-13T19:07:59.810Z,79
2023-01-13T19:10:59.824Z,79.3
2023-01-13T19:13:59.854Z,79.6
2023-01-13T19:16:59.822Z,79.6
2023-01-13T19:19:59.828Z,79.7
2023-01-13T19:22:59.870Z,79.6
2023-01-13T19:25:59.834Z,79.8
2023-01-13T19:28:59.841Z,80.2
2023-01-13T19:31:59.887Z,80.5
2023-01-13T19:34:59.923Z,80.7
2023-01-13T19:37:59.870Z,80.8
2023-01-13T19:40:59.869Z,80.8
2023-01-13T19:43:59.876Z,80.6
2023-01-13T19:46:59.880Z,80.4
2023-01-13T19:49:59.908Z,80.3
2023-01-13T19:52:59.909Z,80.2
2023-01-13T19:55:59.891Z,80.1
2023-01-13T19:58:59.901Z,80.2
2023-01-13T20:01:59.932Z,79.9
2023-01-13T20:04:59.890Z,79.4
2023-01-13T20:07:59.930Z,79.4
2023-01-13T20:10:59.907Z,79
2023-01-13T20:13:59.907Z,79
2023-01-13T20:16:59.913Z,78.7
2023-01-13T20:19:59.917Z,78.9
2023-01-13T20:22:59.927Z,79.8
2023-01-13T20:25:59.954Z,80.3
2023-01-13T20:28:59.922Z,80.5
2023-01-13T20:31:59.935Z,81.1
2023-01-13T20:34:59.946Z,81.1
2023-01-13T20:37:59.946Z,81.1
2023-01-13T20:40:59.943Z,81
2023-01-13T20:44:00.044Z,80.8
2023-01-13T20:46:59.965Z,80.8
2023-01-13T20:49:59.954Z,81
2023-01-13T20:52:59.970Z,81
2023-01-13T20:55:59.970Z,81.2
2023-01-13T20:58:59.966Z,82.1
2023-01-13T21:01:59.999Z,83
2023-01-13T21:04:59.990Z,84.2
2023-01-13T21:07:59.984Z,84.2
2023-01-13T21:11:00.002Z,84.5
2023-01-13T21:13:59.995Z,84.1
2023-01-13T21:16:59.999Z,84.2
2023-01-13T21:20:00.033Z,84.5
2023-01-13T21:23:00.006Z,84.6
2023-01-13T21:26:00.008Z,85.2
2023-01-13T21:29:00.012Z,85.9
2023-01-13T21:32:00.079Z,86.7
2023-01-13T21:35:00.028Z,87.3
2023-01-13T21:38:00.069Z,88.4
2023-01-13T21:41:00.036Z,90.1
2023-01-13T21:44:00.056Z,89.6
2023-01-13T21:47:00.045Z,90.1
2023-01-13T21:50:00.064Z,89.9
2023-01-13T21:53:00.086Z,89.8
2023-01-13T21:56:00.106Z,90.1
2023-01-13T21:59:00.091Z,90.1
2023-01-13T22:02:10.542Z,90
2023-01-13T22:05:00.094Z,90.6
2023-01-13T22:08:00.115Z,90.5
2023-01-13T22:11:00.102Z,91
2023-01-13T22:14:00.109Z,92.1
2023-01-13T22:17:00.103Z,92
2023-01-13T22:20:00.111Z,91.7
2023-01-13T22:23:00.098Z,91.6
2023-01-13T22:26:00.109Z,91.3
2023-01-13T22:29:00.105Z,91.3
2023-01-13T22:32:00.270Z,91.1
2023-01-13T22:35:00.123Z,90.9
2023-01-13T22:38:00.128Z,90.5
2023-01-13T22:41:00.133Z,90.5
2023-01-13T22:44:00.138Z,90.5
2023-01-13T22:47:00.132Z,90.1
2023-01-13T22:50:00.162Z,90
2023-01-13T22:53:00.140Z,89.7
2023-01-13T22:56:00.147Z,89.6
2023-01-13T22:59:00.143Z,89.5
2023-01-13T23:02:00.149Z,89.2
2023-01-13T23:05:00.148Z,89.1
2023-01-13T23:08:00.174Z,88.7
2023-01-13T23:11:00.158Z,88.3
2023-01-13T23:14:00.170Z,88
2023-01-13T23:17:00.239Z,86.8
2023-01-13T23:20:00.219Z,87.2
2023-01-13T23:23:00.170Z,86.7
2023-01-13T23:26:00.198Z,85.9
2023-01-13T23:29:00.203Z,86
2023-01-13T23:32:00.186Z,85.3
2023-01-13T23:35:00.190Z,85.5
2023-01-13T23:38:00.193Z,85.4
2023-01-13T23:41:00.205Z,85.1
2023-01-13T23:44:00.235Z,84.5
2023-01-13T23:47:00.221Z,84.7
2023-01-13T23:50:00.215Z,84.4
2023-01-13T23:53:00.213Z,84.5
2023-01-13T23:56:00.226Z,84.6
2023-01-13T23:59:00.233Z,84.4
